Aviation Digital Data Service (ADDS)

Output produced by METARs form (0337 UTC 02 July 2015)
found at http://aviationweather.gov/adds/metars/
 
KCRG 012320Z 0200/0224 24010KT P6SM SCT060 SCT250 
     FM020200 23004KT P6SM SCT150 
     FM021400 25008KT P6SM SCT030 SCT250 
     FM021800 20010KT P6SM VCTS BKN040CB